Time;durP1;ratioP1;P1;durP2;ratioP2;P2;SDS_P1;SDS_P2;PMS_P1;PMS_P2;Temp;Humidity;BMP_temperature;BMP_pressure;BME280_temperature;BME280_humidity;BME280_pressure;Samples;Min_cycle;Max_cycle;Signal;HPM_P1;HPM_P2
2021/10/16 00:06:43;;;;;;;1.40;1.30;;;17.70;99.90;;;;;;20693612;23;20265;-79
2021/10/16 00:16:48;;;;;;;0.80;0.73;;;17.70;99.90;;;;;;20742444;28;20197;-78
2021/10/16 00:26:51;;;;;;;3.73;1.70;;;17.70;99.90;;;;;;20726532;28;20213;-76
2021/10/16 00:36:57;;;;;;;0.70;0.70;;;17.60;99.90;;;;;;20686556;28;20752;-76
2021/10/16 00:47:00;;;;;;;0.93;0.70;;;17.50;99.90;;;;;;20658191;28;20665;-77
2021/10/16 00:57:07;;;;;;;0.60;0.60;;;17.30;99.90;;;;;;20713231;28;20321;-77
2021/10/16 01:07:11;;;;;;;3.03;1.03;;;17.30;99.90;;;;;;20707651;23;20353;-83
2021/10/16 01:17:19;;;;;;;2.13;1.07;;;17.30;99.90;;;;;;20659093;28;20254;-84
2021/10/16 01:27:25;;;;;;;0.77;0.77;;;17.30;99.90;;;;;;20657558;28;20279;-83
2021/10/16 01:37:28;;;;;;;4.73;0.83;;;17.20;99.90;;;;;;20654719;28;20248;-85
2021/10/16 01:47:33;;;;;;;0.70;0.70;;;17.00;99.90;;;;;;20659604;28;20203;-86
2021/10/16 01:57:37;;;;;;;1.50;1.27;;;17.00;99.90;;;;;;20657663;28;20219;-85
2021/10/16 02:07:45;;;;;;;1.93;0.73;;;17.10;99.90;;;;;;20657941;28;20254;-83
2021/10/16 02:17:49;;;;;;;2.63;0.63;;;16.80;99.90;;;;;;20653189;28;20306;-82
2021/10/16 02:27:54;;;;;;;0.87;0.87;;;16.70;99.90;;;;;;20653884;28;20210;-84
2021/10/16 02:37:57;;;;;;;1.10;0.97;;;16.90;99.90;;;;;;20661693;28;20310;-86
2021/10/16 02:48:02;;;;;;;1.07;1.03;;;16.80;99.90;;;;;;20655967;28;20253;-84
2021/10/16 02:58:06;;;;;;;2.70;2.13;;;16.80;99.90;;;;;;20667361;28;20318;-83
2021/10/16 03:08:11;;;;;;;0.40;0.40;;;16.70;99.90;;;;;;20668820;28;20251;-88
2021/10/16 03:18:14;;;;;;;0.33;0.33;;;16.60;99.90;;;;;;20676733;28;20233;-78
2021/10/16 03:28:19;;;;;;;0.40;0.33;;;16.60;99.90;;;;;;20693032;28;20195;-87
2021/10/16 03:38:23;;;;;;;1.23;0.67;;;16.60;99.90;;;;;;20667309;28;20227;-87
2021/10/16 03:48:28;;;;;;;1.13;1.03;;;16.60;99.90;;;;;;20664083;28;20727;-81
2021/10/16 03:58:32;;;;;;;0.73;0.57;;;16.80;99.90;;;;;;20661594;28;20227;-85
2021/10/16 04:08:37;;;;;;;1.60;0.87;;;16.70;99.90;;;;;;20662913;28;20233;-85
2021/10/16 04:18:40;;;;;;;0.63;0.63;;;16.60;99.90;;;;;;20665302;28;20231;-88
2021/10/16 04:28:45;;;;;;;0.87;0.87;;;16.60;99.90;;;;;;20668747;28;20580;-90
2021/10/16 04:38:50;;;;;;;1.43;0.80;;;16.50;99.90;;;;;;20662639;28;20227;-86
2021/10/16 04:48:56;;;;;;;1.30;1.17;;;16.60;99.90;;;;;;20662117;28;20211;-84
2021/10/16 04:59:00;;;;;;;0.40;0.40;;;16.70;99.90;;;;;;20690555;28;20215;-87
2021/10/16 05:09:05;;;;;;;1.37;0.80;;;16.80;99.90;;;;;;20762200;23;20239;-85
2021/10/16 05:19:08;;;;;;;0.33;0.33;;;16.80;99.90;;;;;;20705904;28;20719;-88
2021/10/16 05:29:13;;;;;;;0.20;0.10;;;16.90;99.90;;;;;;20662969;28;21025;-89
2021/10/16 05:39:17;;;;;;;1.13;0.70;;;16.60;99.90;;;;;;20653418;28;20231;-86
2021/10/16 05:49:22;;;;;;;0.30;0.30;;;16.50;99.90;;;;;;20660842;28;20238;-85
2021/10/16 05:59:26;;;;;;;8.63;7.73;;;16.60;99.90;;;;;;20649283;28;20323;-86
2021/10/16 06:09:31;;;;;;;16.37;1.57;;;16.70;99.90;;;;;;20578635;28;20220;-88
2021/10/16 06:19:35;;;;;;;1.33;1.17;;;16.90;99.90;;;;;;20583958;28;20331;-88
2021/10/16 06:29:40;;;;;;;0.83;0.83;;;17.10;99.90;;;;;;20592140;28;20745;-85
2021/10/16 06:39:43;;;;;;;0.30;0.30;;;17.30;99.90;;;;;;20601965;28;20224;-89
2021/10/16 06:49:48;;;;;;;1.87;0.80;;;17.50;99.90;;;;;;20601171;28;20705;-85
2021/10/16 06:59:52;;;;;;;3.47;1.13;;;17.50;99.90;;;;;;20673425;28;20224;-86
2021/10/16 07:09:57;;;;;;;0.60;0.57;;;17.80;99.90;;;;;;20654542;28;20220;-84
2021/10/16 07:20:01;;;;;;;0.67;0.67;;;18.10;99.90;;;;;;20604238;28;20298;-85
2021/10/16 07:30:08;;;;;;;1.60;0.50;;;18.30;99.90;;;;;;20666882;28;20229;-87
2021/10/16 07:40:13;;;;;;;0.77;0.73;;;18.60;99.90;;;;;;20633734;28;20220;-85
2021/10/16 07:50:19;;;;;;;0.60;0.60;;;19.00;99.90;;;;;;20599056;28;20197;-84
2021/10/16 08:00:23;;;;;;;0.70;0.70;;;19.40;99.90;;;;;;20657110;28;20219;-80
2021/10/16 08:10:28;;;;;;;1.37;0.80;;;19.70;99.90;;;;;;20662887;28;20220;-81
2021/10/16 08:20:32;;;;;;;0.70;0.60;;;20.20;99.90;;;;;;20660330;28;20226;-79
2021/10/16 08:30:38;;;;;;;1.37;0.37;;;20.70;99.90;;;;;;20661107;28;20728;-78
2021/10/16 08:40:43;;;;;;;3.20;1.20;;;20.90;99.90;;;;;;20635499;28;20267;-81
2021/10/16 08:50:51;;;;;;;0.87;0.60;;;21.60;99.90;;;;;;20615440;28;20677;-81
2021/10/16 09:00:57;;;;;;;0.77;0.73;;;21.50;99.90;;;;;;20615476;28;20219;-77
2021/10/16 09:11:32;;;;;;;0.20;0.20;;;21.80;99.90;;;;;;20613306;28;20231;-79
2021/10/16 09:21:36;;;;;;;0.85;0.50;;;22.50;99.90;;;;;;20595919;28;20282;-77
2021/10/16 09:31:44;;;;;;;0.20;0.15;;;22.00;99.90;;;;;;20633361;28;20611;-80
2021/10/16 09:41:51;;;;;;;0.50;0.30;;;22.20;99.90;;;;;;20615425;28;20673;-76
2021/10/16 09:51:57;;;;;;;0.23;0.23;;;22.20;99.90;;;;;;20606544;28;20204;-80
2021/10/16 10:02:04;;;;;;;0.47;0.30;;;22.20;99.90;;;;;;20612365;28;20277;-77
2021/10/16 10:12:12;;;;;;;0.50;0.50;;;22.30;99.90;;;;;;20611772;28;21052;-81
2021/10/16 10:22:18;;;;;;;0.73;0.73;;;22.80;99.90;;;;;;20638734;28;20322;-80
2021/10/16 10:32:24;;;;;;;0.32;0.32;;;22.90;99.90;;;;;;20652837;28;20195;-76
2021/10/16 10:42:54;;;;;;;0.68;0.68;;;23.40;99.90;;;;;;20648734;28;20298;-77
2021/10/16 10:53:06;;;;;;;1.17;1.08;;;23.90;99.90;;;;;;20628234;28;20236;-81
2021/10/16 11:03:46;;;;;;;0.32;0.32;;;24.00;99.90;;;;;;20569074;28;20334;-82
2021/10/16 11:13:51;;;;;;;0.30;0.28;;;24.30;99.90;;;;;;20608117;28;20611;-79
2021/10/16 11:23:56;;;;;;;1.02;0.93;;;24.50;99.90;;;;;;20648594;28;20215;-81
2021/10/16 11:34:08;;;;;;;0.65;0.65;;;25.00;99.90;;;;;;20665253;28;20199;-80
2021/10/16 11:44:13;;;;;;;0.40;0.40;;;25.10;99.90;;;;;;20663421;28;20227;-78
2021/10/16 11:54:20;;;;;;;2.50;1.08;;;25.70;99.90;;;;;;20629691;28;20558;-77
2021/10/16 12:04:23;;;;;;;0.30;0.30;;;25.80;99.90;;;;;;20580408;28;20231;-79
2021/10/16 12:14:28;;;;;;;1.35;0.80;;;25.40;99.90;;;;;;20579706;28;20270;-81
2021/10/16 12:35:58;;;;;;;8.35;1.02;;;25.60;99.90;;;;;;20732758;28;20564;-80
2021/10/16 12:46:01;;;;;;;0.30;0.30;;;26.00;99.90;;;;;;20741767;28;20711;-82
2021/10/16 12:56:16;;;;;;;0.68;0.65;;;26.50;99.90;;;;;;20740456;28;20223;-78
2021/10/16 13:06:19;;;;;;;1.38;1.13;;;26.80;99.90;;;;;;20736783;28;20226;-76
2021/10/16 13:16:24;;;;;;;1.02;0.80;;;26.80;99.90;;;;;;20731978;28;20761;-78
2021/10/16 13:26:28;;;;;;;1.55;0.50;;;26.50;99.90;;;;;;20732750;28;20254;-77
2021/10/16 13:36:34;;;;;;;0.70;0.70;;;26.60;99.90;;;;;;20729759;28;20230;-77
2021/10/16 13:46:37;;;;;;;1.08;1.08;;;26.90;99.90;;;;;;20730464;28;20264;-75
2021/10/16 13:56:42;;;;;;;0.75;0.75;;;26.80;99.90;;;;;;20678197;28;20607;-73
2021/10/16 14:06:46;;;;;;;0.80;0.80;;;26.70;99.90;;;;;;20648719;28;20229;-76
2021/10/16 14:16:51;;;;;;;2.15;1.95;;;27.30;99.90;;;;;;20646564;28;20286;-78
2021/10/16 14:26:55;;;;;;;1.63;1.00;;;27.00;99.90;;;;;;20649589;28;20329;-78
2021/10/16 14:37:00;;;;;;;1.65;0.98;;;26.60;99.90;;;;;;20645692;28;20187;-77
2021/10/16 14:47:03;;;;;;;7.32;0.68;;;26.00;99.90;;;;;;20651206;28;20309;-77
2021/10/16 14:57:08;;;;;;;0.63;0.63;;;26.00;99.90;;;;;;20712397;28;20230;-73
2021/10/16 15:07:12;;;;;;;0.40;0.40;;;25.90;99.90;;;;;;20703548;28;20243;-74
2021/10/16 15:17:17;;;;;;;0.77;0.52;;;25.60;99.90;;;;;;20728093;28;20294;-77
2021/10/16 15:27:21;;;;;;;0.98;0.70;;;23.70;99.90;;;;;;20686417;28;20237;-75
2021/10/16 15:37:26;;;;;;;0.85;0.85;;;23.00;99.90;;;;;;20659191;28;20210;-74
2021/10/16 15:47:30;;;;;;;0.75;0.75;;;22.40;99.90;;;;;;20657114;28;20306;-74
2021/10/16 15:57:35;;;;;;;1.70;1.13;;;22.30;99.90;;;;;;20712416;28;20191;-74
2021/10/16 16:07:39;;;;;;;0.23;0.23;;;21.90;99.90;;;;;;20734373;28;20230;-75
2021/10/16 16:17:44;;;;;;;0.50;0.50;;;21.50;99.90;;;;;;20730257;28;20293;-77
2021/10/16 16:27:47;;;;;;;0.40;0.37;;;21.20;99.90;;;;;;20736650;28;20254;-73
2021/10/16 16:37:53;;;;;;;1.07;0.80;;;20.60;99.90;;;;;;20734727;28;20253;-76
2021/10/16 16:47:56;;;;;;;3.97;2.47;;;20.50;99.90;;;;;;20737519;28;20233;-76
2021/10/16 16:58:17;;;;;;;0.60;0.60;;;20.40;99.90;;;;;;20685287;28;20249;-75
2021/10/16 17:08:22;;;;;;;0.60;0.60;;;20.20;99.90;;;;;;20650574;28;20241;-72
2021/10/16 17:18:27;;;;;;;1.30;0.87;;;20.00;99.90;;;;;;20710701;28;20202;-76
2021/10/16 17:28:32;;;;;;;0.40;0.40;;;19.80;99.90;;;;;;20728897;28;20241;-76
2021/10/16 17:39:18;;;;;;;4.13;1.03;;;19.80;99.90;;;;;;20722161;28;20221;-77
2021/10/16 17:49:52;;;;;;;0.70;0.70;;;19.60;99.90;;;;;;20694716;28;20254;-76
2021/10/16 17:59:58;;;;;;;0.73;0.63;;;19.50;99.90;;;;;;20701651;28;20195;-79
2021/10/16 18:10:09;;;;;;;0.60;0.60;;;19.20;99.90;;;;;;20698950;28;20748;-77
2021/10/16 18:20:13;;;;;;;1.03;0.60;;;19.00;99.90;;;;;;20720097;28;20257;-77
2021/10/16 18:30:18;;;;;;;0.97;0.70;;;18.90;99.90;;;;;;20741457;28;20707;-77
2021/10/16 18:40:21;;;;;;;0.63;0.57;;;18.50;99.90;;;;;;20744937;28;20202;-76
2021/10/16 18:50:30;;;;;;;5.10;1.57;;;18.30;99.90;;;;;;20732447;23;20330;-74
2021/10/16 19:00:33;;;;;;;0.30;0.30;;;18.00;99.90;;;;;;20662944;28;20250;-78
2021/10/16 19:10:49;;;;;;;0.70;0.70;;;17.80;99.90;;;;;;20660712;28;20200;-76
2021/10/16 19:20:52;;;;;;;0.97;0.97;;;17.70;99.90;;;;;;20660745;28;20310;-77
2021/10/16 19:30:59;;;;;;;0.33;0.33;;;17.60;99.90;;;;;;20679345;28;20203;-77
2021/10/16 19:41:06;;;;;;;0.50;0.50;;;17.50;99.90;;;;;;20660257;28;20231;-77
2021/10/16 19:51:13;;;;;;;1.17;0.80;;;17.50;99.90;;;;;;20669016;28;20242;-79
2021/10/16 20:01:23;;;;;;;1.60;1.13;;;17.60;99.90;;;;;;20579407;28;20239;-74
2021/10/16 20:22:34;;;;;;;0.77;0.77;;;17.90;99.90;;;;;;20544990;28;20231;-66
2021/10/16 20:32:39;;;;;;;2.47;0.67;;;18.00;99.90;;;;;;20572897;28;20270;-67
2021/10/16 20:42:42;;;;;;;0.83;0.50;;;18.30;99.90;;;;;;20572369;28;20251;-66
2021/10/16 20:52:47;;;;;;;1.00;0.90;;;18.30;99.90;;;;;;20589399;28;20314;-65
2021/10/16 21:02:51;;;;;;;0.60;0.60;;;18.40;99.90;;;;;;20652456;28;20737;-65
2021/10/16 21:12:56;;;;;;;0.63;0.60;;;18.30;99.90;;;;;;20652198;28;20196;-65
2021/10/16 21:23:00;;;;;;;0.50;0.40;;;18.30;99.90;;;;;;20651640;28;20685;-65
2021/10/16 21:33:06;;;;;;;0.37;0.37;;;18.50;99.90;;;;;;20651048;28;20196;-65
2021/10/16 21:43:11;;;;;;;1.10;1.07;;;18.60;99.90;;;;;;20631228;28;20247;-67
2021/10/16 21:53:17;;;;;;;1.17;0.77;;;18.70;99.90;;;;;;20603637;28;20632;-70
2021/10/16 22:03:20;;;;;;;0.80;0.80;;;18.70;99.90;;;;;;20604446;28;20238;-69
2021/10/16 22:13:25;;;;;;;9.43;1.00;;;18.50;99.90;;;;;;20618637;28;20242;-69
2021/10/16 22:23:29;;;;;;;1.03;0.90;;;18.60;99.90;;;;;;20580733;28;20274;-70
2021/10/16 22:33:34;;;;;;;0.77;0.77;;;18.70;99.90;;;;;;20644025;28;20246;-71
2021/10/16 22:43:38;;;;;;;0.30;0.30;;;18.70;99.90;;;;;;20648250;28;20318;-70
2021/10/16 22:53:43;;;;;;;6.03;1.73;;;18.90;99.90;;;;;;20647538;28;20597;-69
2021/10/16 23:03:47;;;;;;;1.13;0.70;;;19.00;99.90;;;;;;20647391;28;20250;-70
2021/10/16 23:13:52;;;;;;;0.30;0.30;;;18.80;99.90;;;;;;20658933;28;20279;-69
2021/10/16 23:23:56;;;;;;;1.23;1.13;;;18.80;99.90;;;;;;20657881;28;20247;-70
2021/10/16 23:34:00;;;;;;;0.73;0.73;;;18.80;99.90;;;;;;20659941;28;20206;-69
2021/10/16 23:44:04;;;;;;;0.40;0.40;;;18.70;99.90;;;;;;20650851;28;20299;-68
2021/10/16 23:54:10;;;;;;;1.63;1.53;;;18.70;99.90;;;;;;20641508;28;20561;-68
